Bitahochee, Arizona
Current Conditions -  °F | °C
As of 9:56 PM on Saturday 20 Dec 2014 (Local Time) from KINW Reporting Station
Moderate Fog Moderate Fog  
Wind Chill: 24°   Ceiling: 100
Heat Index: 29°   Visibility: 0.25mi
Dew Point: 28°   Wind: 5mph
Humidity: 96%   Direction: 270°W
Pressure: 30.17"   Gusts: NA
Location:  35.4077°N, 110.085°W
Report Text: KINW 210456Z AUTO 27004KT 1/4SM FZFG VV001 M02/M02 A3017 RMK AO2 SLP236 T10171022
Loading
Personal Weather Stations






























Interactive Weather Map New forecast layout! Learn more

10-Day Weather Forecast

Advertisements
Track Severe Weather on mobile